Time;durP1;ratioP1;P1;durP2;ratioP2;P2;SDS_P1;SDS_P2;PMS_P1;PMS_P2;Temp;Humidity;BMP_temperature;BMP_pressure;BME280_temperature;BME280_humidity;BME280_pressure;Samples;Min_cycle;Max_cycle;Signal;HPM_P1;HPM_P2
2021/12/06 00:02:27;;;;;;;1.77;1.67;;;;;;;;;;5095286;28;20197;-86
2021/12/06 00:04:56;;;;;;;3.57;3.20;;;;;;;;;;5094852;28;20201;-86
2021/12/06 00:07:25;;;;;;;6.90;6.20;;;;;;;;;;5095298;28;20212;-85
2021/12/06 00:09:54;;;;;;;4.67;4.40;;;;;;;;;;5094441;28;20236;-85
2021/12/06 00:12:22;;;;;;;8.00;6.90;;;;;;;;;;5095232;28;20208;-86
2021/12/06 00:14:51;;;;;;;6.17;5.20;;;;;;;;;;5095219;28;20229;-86
2021/12/06 00:17:19;;;;;;;9.90;8.03;;;;;;;;;;5094696;28;20258;-86
2021/12/06 00:19:49;;;;;;;5.30;3.97;;;;;;;;;;5095057;28;20204;-86
2021/12/06 00:22:23;;;;;;;4.17;3.83;;;;;;;;;;5094911;28;20205;-86
2021/12/06 00:24:52;;;;;;;14.07;9.53;;;;;;;;;;5094903;28;20238;-86
2021/12/06 00:27:20;;;;;;;5.43;4.13;;;;;;;;;;5094892;28;20239;-86
2021/12/06 00:29:49;;;;;;;21.57;8.20;;;;;;;;;;5094206;28;20204;-86
2021/12/06 00:32:17;;;;;;;9.13;6.23;;;;;;;;;;5094684;28;20209;-85
2021/12/06 00:34:46;;;;;;;4.53;2.43;;;;;;;;;;5094589;28;20209;-86
2021/12/06 00:37:21;;;;;;;13.43;8.33;;;;;;;;;;5094575;28;20213;-86
2021/12/06 00:39:51;;;;;;;6.83;5.90;;;;;;;;;;5094743;28;20200;-86
2021/12/06 00:42:20;;;;;;;16.37;11.10;;;;;;;;;;5094804;28;20228;-87
2021/12/06 00:44:49;;;;;;;8.53;5.37;;;;;;;;;;5094245;28;20212;-87
2021/12/06 00:47:17;;;;;;;5.07;4.67;;;;;;;;;;5094345;28;20200;-86
2021/12/06 00:49:47;;;;;;;8.47;4.47;;;;;;;;;;5094281;28;20209;-86
2021/12/06 00:52:17;;;;;;;2.03;2.00;;;;;;;;;;5094802;28;20193;-87
2021/12/06 00:54:46;;;;;;;6.17;5.57;;;;;;;;;;5094145;28;20201;-87
2021/12/06 00:57:16;;;;;;;6.50;2.00;;;;;;;;;;5094433;28;20278;-87
2021/12/06 00:59:45;;;;;;;9.43;6.33;;;;;;;;;;5094213;28;20254;-87
2021/12/06 01:02:14;;;;;;;3.73;3.47;;;;;;;;;;5093712;28;20231;-84
2021/12/06 01:04:44;;;;;;;1.93;1.83;;;;;;;;;;5093960;28;20243;-85
2021/12/06 01:07:12;;;;;;;6.83;6.20;;;;;;;;;;5093817;28;20209;-86
2021/12/06 01:09:43;;;;;;;1.27;1.27;;;;;;;;;;5093511;28;20267;-86
2021/12/06 01:12:12;;;;;;;1.67;1.57;;;;;;;;;;5094134;28;20181;-87
2021/12/06 01:14:41;;;;;;;2.87;2.77;;;;;;;;;;5093925;28;20205;-86
2021/12/06 01:17:09;;;;;;;4.40;4.03;;;;;;;;;;5094141;28;20204;-86
2021/12/06 01:19:38;;;;;;;4.30;4.00;;;;;;;;;;5093672;28;20204;-86
2021/12/06 01:22:18;;;;;;;5.00;3.50;;;;;;;;;;5093912;28;20288;-86
2021/12/06 01:24:54;;;;;;;2.87;2.70;;;;;;;;;;5094113;28;20233;-86
2021/12/06 01:27:45;;;;;;;4.30;3.83;;;;;;;;;;5093916;28;20219;-86
2021/12/06 01:30:29;;;;;;;4.73;4.33;;;;;;;;;;5093929;28;20250;-86
2021/12/06 01:33:27;;;;;;;6.43;4.60;;;;;;;;;;5093937;28;20209;-87
2021/12/06 01:41:27;;;;;;;4.27;3.97;;;;;;;;;;5093413;28;20228;-86
2021/12/06 01:44:10;;;;;;;8.43;6.03;;;;;;;;;;5094143;28;20201;-86
2021/12/06 01:46:41;;;;;;;8.97;8.10;;;;;;;;;;5093757;28;20274;-86
2021/12/06 01:49:10;;;;;;;2.20;2.00;;;;;;;;;;5093771;28;20205;-86
2021/12/06 01:51:38;;;;;;;4.10;3.73;;;;;;;;;;5093937;28;20227;-86
2021/12/06 01:54:07;;;;;;;4.87;4.57;;;;;;;;;;5093768;28;20201;-86
2021/12/06 01:56:37;;;;;;;2.30;2.20;;;;;;;;;;5093881;28;20201;-86
2021/12/06 01:59:06;;;;;;;3.43;3.07;;;;;;;;;;5093600;28;20240;-86
2021/12/06 02:01:35;;;;;;;7.93;5.07;;;;;;;;;;5093346;28;20251;-87
2021/12/06 02:04:05;;;;;;;7.23;5.47;;;;;;;;;;5093522;28;20233;-86
2021/12/06 02:06:34;;;;;;;7.53;6.50;;;;;;;;;;5093350;28;20209;-86
2021/12/06 02:09:04;;;;;;;4.70;4.40;;;;;;;;;;5093038;28;20201;-86
2021/12/06 02:11:36;;;;;;;6.80;6.03;;;;;;;;;;5093833;28;20269;-86
2021/12/06 02:14:19;;;;;;;5.80;5.23;;;;;;;;;;5097170;28;20226;-85
2021/12/06 02:17:01;;;;;;;2.10;2.03;;;;;;;;;;5097293;28;20211;-86
2021/12/06 02:19:32;;;;;;;9.60;7.73;;;;;;;;;;5097176;28;20224;-86
2021/12/06 02:22:03;;;;;;;3.10;2.90;;;;;;;;;;5096989;28;20278;-86
2021/12/06 02:24:32;;;;;;;9.20;6.07;;;;;;;;;;5097518;28;20209;-86
2021/12/06 02:27:01;;;;;;;12.33;9.07;;;;;;;;;;5096808;28;20209;-86
2021/12/06 02:29:31;;;;;;;3.73;2.70;;;;;;;;;;5097349;28;20205;-86
2021/12/06 02:32:05;;;;;;;3.90;3.63;;;;;;;;;;5096803;28;20205;-86
2021/12/06 02:34:36;;;;;;;3.67;3.47;;;;;;;;;;5096518;28;20235;-86
2021/12/06 02:37:06;;;;;;;6.27;5.73;;;;;;;;;;5096812;28;20214;-86
2021/12/06 02:39:36;;;;;;;5.10;2.50;;;;;;;;;;5096980;28;20209;-86
2021/12/06 02:42:05;;;;;;;1.93;1.83;;;;;;;;;;5096684;28;20266;-86
2021/12/06 02:44:34;;;;;;;0.80;0.80;;;;;;;;;;5097156;28;20274;-86
2021/12/06 02:47:03;;;;;;;4.53;2.40;;;;;;;;;;5096505;28;20200;-86
2021/12/06 02:49:31;;;;;;;1.00;1.00;;;;;;;;;;5096521;28;20231;-86
2021/12/06 02:52:00;;;;;;;3.07;2.80;;;;;;;;;;5096783;28;20224;-86
2021/12/06 02:54:33;;;;;;;1.73;1.73;;;;;;;;;;5096459;28;20208;-86
2021/12/06 02:57:19;;;;;;;3.30;3.00;;;;;;;;;;5096512;28;20186;-86
2021/12/06 02:59:48;;;;;;;1.00;1.00;;;;;;;;;;5096147;28;20208;-86
2021/12/06 03:02:19;;;;;;;1.97;1.63;;;;;;;;;;5096323;28;20228;-86
2021/12/06 03:04:50;;;;;;;2.60;2.50;;;;;;;;;;5096359;28;20220;-86
2021/12/06 03:07:21;;;;;;;1.87;1.80;;;;;;;;;;5096286;28;20250;-86
2021/12/06 03:09:54;;;;;;;4.10;3.47;;;;;;;;;;5096140;28;20258;-86
2021/12/06 03:12:24;;;;;;;4.80;4.40;;;;;;;;;;5096359;28;20177;-86
2021/12/06 03:14:53;;;;;;;3.00;2.87;;;;;;;;;;5096434;28;20200;-87
2021/12/06 03:17:23;;;;;;;2.30;2.20;;;;;;;;;;5096428;28;20204;-87
2021/12/06 03:19:51;;;;;;;2.67;2.30;;;;;;;;;;5095899;28;20223;-87
2021/12/06 03:22:20;;;;;;;5.97;3.40;;;;;;;;;;5096136;28;20225;-86
2021/12/06 03:24:49;;;;;;;3.90;1.93;;;;;;;;;;5095870;28;20239;-86
2021/12/06 03:27:19;;;;;;;1.10;1.10;;;;;;;;;;5095674;28;20205;-86
2021/12/06 03:29:48;;;;;;;4.00;3.80;;;;;;;;;;5096065;28;20193;-86
2021/12/06 03:32:16;;;;;;;5.53;3.10;;;;;;;;;;5096051;28;20250;-86
2021/12/06 03:34:45;;;;;;;2.53;2.43;;;;;;;;;;5095681;28;20213;-87
2021/12/06 03:37:13;;;;;;;1.93;1.83;;;;;;;;;;5095861;28;20257;-86
2021/12/06 03:39:43;;;;;;;5.67;3.63;;;;;;;;;;5095427;28;20235;-86
2021/12/06 03:42:13;;;;;;;1.73;1.73;;;;;;;;;;5095579;28;20220;-86
2021/12/06 03:44:43;;;;;;;8.27;7.47;;;;;;;;;;5095336;28;20204;-86
2021/12/06 03:47:16;;;;;;;1.47;1.47;;;;;;;;;;5095737;28;20201;-86
2021/12/06 03:49:44;;;;;;;3.47;3.30;;;;;;;;;;5095614;28;20208;-86
2021/12/06 03:52:14;;;;;;;17.27;10.67;;;;;;;;;;5095544;28;20201;-86
2021/12/06 03:54:44;;;;;;;13.97;10.07;;;;;;;;;;5095594;28;20204;-86
2021/12/06 03:57:12;;;;;;;27.53;13.77;;;;;;;;;;5095366;28;20197;-86
2021/12/06 03:59:41;;;;;;;34.87;19.63;;;;;;;;;;5095152;28;20228;-86
2021/12/06 04:02:11;;;;;;;28.03;18.57;;;;;;;;;;5095190;28;20224;-86
2021/12/06 04:04:40;;;;;;;43.87;23.27;;;;;;;;;;5095453;28;20224;-86
2021/12/06 04:07:09;;;;;;;32.40;20.50;;;;;;;;;;5095000;28;20264;-86
2021/12/06 04:09:38;;;;;;;31.93;19.57;;;;;;;;;;5094976;28;20233;-86
2021/12/06 04:12:07;;;;;;;29.23;16.40;;;;;;;;;;5094729;28;20209;-86
2021/12/06 04:14:36;;;;;;;34.97;18.57;;;;;;;;;;5095285;28;20213;-86
2021/12/06 04:17:05;;;;;;;10.00;7.60;;;;;;;;;;5095047;28;20212;-86
2021/12/06 04:19:35;;;;;;;4.17;3.90;;;;;;;;;;5095013;28;20212;-86
2021/12/06 04:22:04;;;;;;;2.83;2.73;;;;;;;;;;5094847;28;20321;-86
2021/12/06 04:24:33;;;;;;;2.30;2.10;;;;;;;;;;5095055;28;20223;-86
2021/12/06 04:27:12;;;;;;;3.33;3.17;;;;;;;;;;5094632;28;20237;-86
2021/12/06 04:29:41;;;;;;;3.80;2.53;;;;;;;;;;5094806;28;20253;-86
2021/12/06 04:32:10;;;;;;;3.43;2.53;;;;;;;;;;5094528;28;20230;-86
2021/12/06 04:34:40;;;;;;;1.77;1.73;;;;;;;;;;5094480;28;20228;-86
2021/12/06 04:37:09;;;;;;;4.23;3.17;;;;;;;;;;5094161;28;20220;-86
2021/12/06 04:39:39;;;;;;;8.67;5.63;;;;;;;;;;5094976;28;20200;-86
2021/12/06 04:42:10;;;;;;;3.83;3.50;;;;;;;;;;5094211;28;20201;-87
2021/12/06 04:44:38;;;;;;;1.53;1.53;;;;;;;;;;5094605;28;20205;-86
2021/12/06 04:47:08;;;;;;;4.00;2.63;;;;;;;;;;5094276;28;20228;-86
2021/12/06 04:49:36;;;;;;;3.80;3.60;;;;;;;;;;5094512;28;20208;-86
2021/12/06 04:52:09;;;;;;;1.07;1.07;;;;;;;;;;5094398;28;20193;-86
2021/12/06 04:54:39;;;;;;;3.90;1.97;;;;;;;;;;5094371;28;20209;-86
2021/12/06 04:57:09;;;;;;;3.70;3.40;;;;;;;;;;5094667;28;20244;-86
2021/12/06 04:59:40;;;;;;;2.40;2.30;;;;;;;;;;5094155;28;20205;-86
2021/12/06 05:02:12;;;;;;;3.10;2.30;;;;;;;;;;5094103;28;20197;-87
2021/12/06 05:04:43;;;;;;;2.80;2.60;;;;;;;;;;5094251;28;20213;-86
2021/12/06 05:07:15;;;;;;;1.53;1.53;;;;;;;;;;5094005;28;20257;-86
2021/12/06 05:09:45;;;;;;;5.23;4.90;;;;;;;;;;5093553;28;20240;-87
2021/12/06 05:12:14;;;;;;;6.37;5.80;;;;;;;;;;5094353;28;20250;-87
2021/12/06 05:14:43;;;;;;;5.33;4.87;;;;;;;;;;5093984;28;20204;-87
2021/12/06 05:17:12;;;;;;;9.00;7.10;;;;;;;;;;5094012;28;20579;-86
2021/12/06 05:19:40;;;;;;;3.00;2.90;;;;;;;;;;5093787;28;20258;-86
2021/12/06 05:22:09;;;;;;;2.53;2.43;;;;;;;;;;5093571;28;20204;-86
2021/12/06 05:24:40;;;;;;;1.57;1.47;;;;;;;;;;5093843;28;20224;-87
2021/12/06 05:27:08;;;;;;;5.07;3.93;;;;;;;;;;5094237;28;20209;-86
2021/12/06 05:29:37;;;;;;;4.80;4.63;;;;;;;;;;5094177;28;20205;-86
2021/12/06 05:32:06;;;;;;;3.00;2.80;;;;;;;;;;5094161;28;20201;-86
2021/12/06 05:34:40;;;;;;;4.00;3.67;;;;;;;;;;5093875;28;20205;-87
2021/12/06 05:37:10;;;;;;;37.80;21.57;;;;;;;;;;5093750;28;20264;-86
2021/12/06 05:39:40;;;;;;;19.23;9.23;;;;;;;;;;5094076;28;20193;-86
2021/12/06 05:42:10;;;;;;;41.17;23.33;;;;;;;;;;5093772;28;20205;-86
2021/12/06 05:44:42;;;;;;;14.97;7.87;;;;;;;;;;5093661;28;20224;-86
2021/12/06 05:47:13;;;;;;;6.90;5.47;;;;;;;;;;5095653;28;20277;-87
2021/12/06 05:49:41;;;;;;;27.50;16.93;;;;;;;;;;5097914;28;20235;-87
2021/12/06 05:52:10;;;;;;;1.40;1.40;;;;;;;;;;5097462;28;20237;-86
2021/12/06 05:54:40;;;;;;;26.40;16.03;;;;;;;;;;5098163;28;20197;-86
2021/12/06 05:57:10;;;;;;;38.90;22.80;;;;;;;;;;5097994;28;20284;-86
2021/12/06 05:59:38;;;;;;;28.13;16.07;;;;;;;;;;5097778;28;20255;-87
2021/12/06 06:02:07;;;;;;;32.17;17.53;;;;;;;;;;5098037;28;20213;-86
2021/12/06 06:04:36;;;;;;;40.37;29.03;;;;;;;;;;5097554;28;20229;-86
2021/12/06 06:07:08;;;;;;;43.57;27.07;;;;;;;;;;5097930;28;20202;-86
2021/12/06 06:09:37;;;;;;;35.87;20.00;;;;;;;;;;5097520;28;20236;-86
2021/12/06 06:12:07;;;;;;;2.03;1.97;;;;;;;;;;5097433;28;20213;-86
2021/12/06 06:14:38;;;;;;;1.47;1.47;;;;;;;;;;5097343;28;20235;-87
2021/12/06 06:17:13;;;;;;;32.40;17.50;;;;;;;;;;5097177;28;20212;-86
2021/12/06 06:19:43;;;;;;;1.30;1.30;;;;;;;;;;5096324;28;20204;-86
2021/12/06 06:22:12;;;;;;;4.27;4.07;;;;;;;;;;5097233;28;20197;-87
2021/12/06 06:24:41;;;;;;;24.73;14.57;;;;;;;;;;5096767;28;20274;-87
2021/12/06 06:27:11;;;;;;;35.33;21.77;;;;;;;;;;5097405;28;20224;-87
2021/12/06 06:29:44;;;;;;;9.00;6.53;;;;;;;;;;5097436;28;20200;-87
2021/12/06 06:32:12;;;;;;;42.60;23.63;;;;;;;;;;5097011;28;20205;-86
2021/12/06 06:34:41;;;;;;;23.27;14.80;;;;;;;;;;5097337;28;20201;-87
2021/12/06 06:37:10;;;;;;;37.37;22.23;;;;;;;;;;5096994;28;20234;-87
2021/12/06 06:39:38;;;;;;;27.23;17.07;;;;;;;;;;5096752;28;20216;-87
2021/12/06 06:42:07;;;;;;;41.83;23.87;;;;;;;;;;5096811;28;20212;-87
2021/12/06 06:44:38;;;;;;;27.23;15.83;;;;;;;;;;5096651;28;20212;-87
2021/12/06 06:47:06;;;;;;;53.53;28.13;;;;;;;;;;5096880;28;20246;-88
2021/12/06 06:49:35;;;;;;;31.97;18.03;;;;;;;;;;5096730;28;20231;-87
2021/12/06 06:52:04;;;;;;;45.87;20.50;;;;;;;;;;5096495;28;20235;-86
2021/12/06 06:54:32;;;;;;;62.60;28.23;;;;;;;;;;5096656;28;20197;-87
2021/12/06 06:57:01;;;;;;;76.90;36.93;;;;;;;;;;5096603;28;20204;-87
2021/12/06 06:59:29;;;;;;;15.20;8.73;;;;;;;;;;5095589;28;20204;-87
2021/12/06 07:01:59;;;;;;;28.00;15.53;;;;;;;;;;5096541;28;20277;-87
2021/12/06 07:04:28;;;;;;;45.87;20.27;;;;;;;;;;5096478;28;20233;-87
2021/12/06 07:06:57;;;;;;;6.37;5.80;;;;;;;;;;5096823;28;20205;-87
2021/12/06 07:09:25;;;;;;;9.57;5.87;;;;;;;;;;5095950;28;20304;-87
2021/12/06 07:11:54;;;;;;;13.93;9.10;;;;;;;;;;5096610;28;20202;-87
2021/12/06 07:14:22;;;;;;;35.80;21.10;;;;;;;;;;5096199;28;20200;-87
2021/12/06 07:16:51;;;;;;;39.10;20.63;;;;;;;;;;5096280;28;20209;-87
2021/12/06 07:19:21;;;;;;;68.27;38.80;;;;;;;;;;5096113;28;20204;-85
2021/12/06 07:21:57;;;;;;;70.33;33.13;;;;;;;;;;5095572;28;20228;-85
2021/12/06 07:24:26;;;;;;;62.23;30.27;;;;;;;;;;5095668;28;20228;-85
2021/12/06 07:26:55;;;;;;;73.30;38.00;;;;;;;;;;5095787;28;20201;-85
2021/12/06 07:29:24;;;;;;;78.50;35.73;;;;;;;;;;5095257;28;20197;-85
2021/12/06 07:31:53;;;;;;;66.70;33.83;;;;;;;;;;5096587;28;20208;-85
2021/12/06 07:34:24;;;;;;;56.80;27.10;;;;;;;;;;5095848;28;20192;-85
2021/12/06 07:36:52;;;;;;;68.23;34.43;;;;;;;;;;5095925;28;20201;-84
2021/12/06 07:39:21;;;;;;;27.63;13.93;;;;;;;;;;5095658;28;20269;-85
2021/12/06 07:41:51;;;;;;;55.67;27.70;;;;;;;;;;5095699;28;20212;-85
2021/12/06 07:44:23;;;;;;;70.47;31.53;;;;;;;;;;5095473;28;20228;-85
2021/12/06 07:46:52;;;;;;;51.47;23.90;;;;;;;;;;5095669;28;20199;-84
2021/12/06 07:49:25;;;;;;;51.90;25.67;;;;;;;;;;5094954;28;20211;-81
2021/12/06 07:51:55;;;;;;;7.40;6.70;;;;;;;;;;5095358;28;20185;-84
2021/12/06 07:54:24;;;;;;;19.17;9.80;;;;;;;;;;5095232;28;20201;-83
2021/12/06 07:56:52;;;;;;;60.13;29.03;;;;;;;;;;5094965;28;20204;-82
2021/12/06 07:59:21;;;;;;;51.17;24.20;;;;;;;;;;5095318;28;20213;-82
2021/12/06 08:01:51;;;;;;;18.13;11.33;;;;;;;;;;5095258;28;20197;-82
2021/12/06 08:04:20;;;;;;;61.97;32.77;;;;;;;;;;5094351;28;20221;-82
2021/12/06 08:06:49;;;;;;;39.53;23.07;;;;;;;;;;5094716;28;20204;-83
2021/12/06 08:09:20;;;;;;;67.63;37.87;;;;;;;;;;5094947;28;20226;-83
2021/12/06 08:11:51;;;;;;;70.70;37.63;;;;;;;;;;5094461;28;20201;-82
2021/12/06 08:14:20;;;;;;;61.60;29.90;;;;;;;;;;5094544;28;20197;-83
2021/12/06 08:16:49;;;;;;;32.93;15.33;;;;;;;;;;5085783;28;20197;-83
2021/12/06 08:19:17;;;;;;;65.87;30.53;;;;;;;;;;5074237;28;20209;-83
2021/12/06 08:21:46;;;;;;;70.13;33.37;;;;;;;;;;5085861;28;20246;-83
2021/12/06 08:24:14;;;;;;;7.60;6.80;;;;;;;;;;5093733;28;20212;-85
2021/12/06 08:26:47;;;;;;;4.80;4.60;;;;;;;;;;5094144;28;20205;-84
2021/12/06 08:29:23;;;;;;;6.87;6.07;;;;;;;;;;5096132;28;20205;-87
2021/12/06 08:31:55;;;;;;;14.43;11.50;;;;;;;;;;5099805;28;20205;-87
2021/12/06 08:34:29;;;;;;;10.13;4.77;;;;;;;;;;5093323;28;20197;-88
2021/12/06 08:37:05;;;;;;;39.83;20.47;;;;;;;;;;5094662;28;20213;-83
2021/12/06 08:39:51;;;;;;;81.93;38.67;;;;;;;;;;5094500;28;20238;-83
2021/12/06 08:42:21;;;;;;;78.63;35.27;;;;;;;;;;5094893;28;20510;-82
2021/12/06 08:44:50;;;;;;;79.83;33.67;;;;;;;;;;5087423;28;20231;-83
2021/12/06 08:47:18;;;;;;;181.37;69.87;;;;;;;;;;5090988;28;20262;-87
2021/12/06 08:49:48;;;;;;;11.30;8.50;;;;;;;;;;5094362;28;20203;-83
2021/12/06 08:52:18;;;;;;;90.37;46.77;;;;;;;;;;5094501;28;20196;-82
2021/12/06 08:54:46;;;;;;;121.97;51.07;;;;;;;;;;5093970;28;20241;-81
2021/12/06 08:57:15;;;;;;;120.83;49.83;;;;;;;;;;5092970;28;20266;-82
2021/12/06 08:59:45;;;;;;;114.07;43.70;;;;;;;;;;5092752;28;20203;-82
2021/12/06 09:02:17;;;;;;;119.60;53.73;;;;;;;;;;5094013;28;20203;-83
2021/12/06 09:05:07;;;;;;;104.63;41.97;;;;;;;;;;5093228;28;20323;-81
2021/12/06 09:07:47;;;;;;;57.53;27.13;;;;;;;;;;5094034;28;20209;-82
2021/12/06 09:10:16;;;;;;;79.97;43.47;;;;;;;;;;5093609;28;20247;-82
2021/12/06 09:12:46;;;;;;;89.73;41.77;;;;;;;;;;5093402;28;20298;-82
2021/12/06 09:15:23;;;;;;;83.90;43.93;;;;;;;;;;5082343;28;20209;-82
2021/12/06 09:17:54;;;;;;;97.03;58.53;;;;;;;;;;5081594;28;20212;-81
2021/12/06 09:20:24;;;;;;;97.93;56.73;;;;;;;;;;5078523;28;20294;-81
2021/12/06 09:22:55;;;;;;;74.53;45.03;;;;;;;;;;5089937;28;20231;-81
2021/12/06 09:25:24;;;;;;;90.83;50.10;;;;;;;;;;5085203;28;20231;-82
2021/12/06 09:27:53;;;;;;;95.30;55.30;;;;;;;;;;5091130;28;20220;-81
2021/12/06 09:30:27;;;;;;;45.27;22.00;;;;;;;;;;5091341;28;20204;-79
2021/12/06 09:32:57;;;;;;;18.67;11.40;;;;;;;;;;5082276;28;20189;-79
2021/12/06 09:35:36;;;;;;;85.83;53.13;;;;;;;;;;5074559;28;20206;-81
2021/12/06 09:38:15;;;;;;;85.80;50.70;;;;;;;;;;5077001;28;20208;-81
2021/12/06 09:40:48;;;;;;;78.70;46.33;;;;;;;;;;5074418;28;20204;-82
2021/12/06 09:43:21;;;;;;;87.90;46.30;;;;;;;;;;5084214;28;20591;-82
2021/12/06 09:45:56;;;;;;;61.40;34.67;;;;;;;;;;5073809;28;20224;-82
2021/12/06 09:48:27;;;;;;;87.97;48.83;;;;;;;;;;5072494;28;20199;-81
2021/12/06 09:51:05;;;;;;;88.57;49.90;;;;;;;;;;5080298;28;20205;-82
2021/12/06 09:56:51;;;;;;;116.27;64.30;;;;;;;;;;5075134;28;20196;-88
2021/12/06 09:59:27;;;;;;;100.30;45.47;;;;;;;;;;5077181;28;20197;-81
2021/12/06 10:02:02;;;;;;;100.13;52.07;;;;;;;;;;5087047;28;20196;-84
2021/12/06 10:04:36;;;;;;;93.23;49.37;;;;;;;;;;5092439;28;20221;-82
2021/12/06 10:07:07;;;;;;;92.70;48.80;;;;;;;;;;5083766;28;20231;-82
2021/12/06 10:09:39;;;;;;;70.50;34.10;;;;;;;;;;5085908;28;20279;-82
2021/12/06 10:12:09;;;;;;;97.63;53.40;;;;;;;;;;5089153;28;20204;-83
2021/12/06 10:14:38;;;;;;;82.23;44.03;;;;;;;;;;5093338;28;20218;-83
2021/12/06 10:17:16;;;;;;;85.30;47.50;;;;;;;;;;5077174;28;20197;-83
2021/12/06 10:19:46;;;;;;;82.13;51.40;;;;;;;;;;5085785;28;20208;-82
2021/12/06 10:22:15;;;;;;;84.03;50.37;;;;;;;;;;5075776;28;20226;-82
2021/12/06 10:24:51;;;;;;;81.03;46.03;;;;;;;;;;5079966;28;20276;-83
2021/12/06 10:27:22;;;;;;;58.80;32.37;;;;;;;;;;5073914;28;20233;-83
2021/12/06 10:29:54;;;;;;;70.10;46.40;;;;;;;;;;5082401;28;20265;-83
2021/12/06 10:32:27;;;;;;;57.37;34.27;;;;;;;;;;5080032;28;20219;-82
2021/12/06 10:35:03;;;;;;;81.17;51.20;;;;;;;;;;5084781;28;20229;-83
2021/12/06 10:37:45;;;;;;;73.77;48.77;;;;;;;;;;5080466;28;20198;-82
2021/12/06 10:40:15;;;;;;;66.20;43.67;;;;;;;;;;5076552;28;20208;-83
2021/12/06 10:42:46;;;;;;;67.07;42.50;;;;;;;;;;5076868;28;20193;-82
2021/12/06 10:45:17;;;;;;;79.20;55.33;;;;;;;;;;5087318;28;20362;-83
2021/12/06 10:48:08;;;;;;;84.97;51.77;;;;;;;;;;5087622;28;20228;-82
2021/12/06 10:50:38;;;;;;;90.17;49.70;;;;;;;;;;5092440;28;20212;-83
2021/12/06 10:53:08;;;;;;;75.17;43.00;;;;;;;;;;5088208;28;20211;-83
2021/12/06 10:55:38;;;;;;;100.20;57.47;;;;;;;;;;5091331;28;20200;-83
2021/12/06 10:58:14;;;;;;;95.00;45.70;;;;;;;;;;5086652;28;20206;-83
2021/12/06 11:00:45;;;;;;;91.27;55.83;;;;;;;;;;5092365;28;20246;-83
2021/12/06 11:03:30;;;;;;;83.97;60.03;;;;;;;;;;5075835;28;20229;-83
2021/12/06 11:06:03;;;;;;;68.33;36.70;;;;;;;;;;5075025;28;20329;-82
2021/12/06 11:08:34;;;;;;;67.83;31.57;;;;;;;;;;5077987;28;20211;-84
2021/12/06 11:11:13;;;;;;;68.03;37.40;;;;;;;;;;5082755;28;20241;-84
2021/12/06 11:13:46;;;;;;;70.13;36.47;;;;;;;;;;5076061;28;20293;-84
2021/12/06 11:16:18;;;;;;;67.80;34.90;;;;;;;;;;5075815;28;20206;-84
2021/12/06 11:18:52;;;;;;;54.93;26.80;;;;;;;;;;5075857;28;20240;-84
2021/12/06 11:21:26;;;;;;;63.97;37.00;;;;;;;;;;5089303;28;20204;-84
2021/12/06 11:24:03;;;;;;;73.20;45.83;;;;;;;;;;5095556;28;20212;-84
2021/12/06 11:26:35;;;;;;;56.40;33.67;;;;;;;;;;5095821;28;20205;-84
2021/12/06 11:29:11;;;;;;;65.03;40.63;;;;;;;;;;5095728;28;20220;-84
2021/12/06 11:31:43;;;;;;;43.67;27.57;;;;;;;;;;5096113;28;20212;-85
2021/12/06 11:34:21;;;;;;;59.50;35.50;;;;;;;;;;5095717;28;20200;-85
2021/12/06 11:36:52;;;;;;;52.90;24.93;;;;;;;;;;5095197;28;20227;-85
2021/12/06 11:39:22;;;;;;;49.13;29.57;;;;;;;;;;5095193;28;20213;-84
2021/12/06 11:41:52;;;;;;;46.53;28.37;;;;;;;;;;5095109;28;20212;-84
2021/12/06 11:44:25;;;;;;;63.07;38.27;;;;;;;;;;5095279;28;20205;-84
2021/12/06 11:47:08;;;;;;;50.70;32.03;;;;;;;;;;5095126;28;20251;-85
2021/12/06 11:49:42;;;;;;;54.80;37.97;;;;;;;;;;5095491;28;20200;-85
2021/12/06 11:52:19;;;;;;;49.73;36.17;;;;;;;;;;5095411;28;20204;-85
2021/12/06 11:54:52;;;;;;;56.40;34.87;;;;;;;;;;5095702;28;20460;-85
2021/12/06 11:57:22;;;;;;;55.27;38.70;;;;;;;;;;5094930;28;20192;-84
2021/12/06 12:00:01;;;;;;;42.17;31.20;;;;;;;;;;5095625;28;20227;-85
2021/12/06 12:02:37;;;;;;;40.30;26.90;;;;;;;;;;5095424;28;20200;-85
2021/12/06 12:05:11;;;;;;;37.83;27.80;;;;;;;;;;5095351;28;20201;-84
2021/12/06 12:07:53;;;;;;;52.20;38.03;;;;;;;;;;5094873;28;20249;-85
2021/12/06 12:10:29;;;;;;;44.33;32.93;;;;;;;;;;5094498;28;20241;-85
2021/12/06 12:12:58;;;;;;;21.93;16.17;;;;;;;;;;5095157;28;20204;-84
2021/12/06 12:15:29;;;;;;;35.23;21.30;;;;;;;;;;5095139;28;20197;-84
2021/12/06 12:17:58;;;;;;;46.47;35.50;;;;;;;;;;5095060;28;20211;-85
2021/12/06 12:20:48;;;;;;;40.37;28.13;;;;;;;;;;5095114;28;20201;-84
2021/12/06 12:23:21;;;;;;;24.30;17.23;;;;;;;;;;5095019;28;20241;-84
2021/12/06 12:26:00;;;;;;;34.10;23.03;;;;;;;;;;5094844;28;20199;-84
2021/12/06 12:28:36;;;;;;;38.90;30.33;;;;;;;;;;5094333;28;20231;-85
2021/12/06 12:31:09;;;;;;;44.37;32.57;;;;;;;;;;5094640;28;20284;-85
2021/12/06 12:33:37;;;;;;;46.27;31.17;;;;;;;;;;5094804;28;20201;-85
2021/12/06 12:36:10;;;;;;;38.90;26.53;;;;;;;;;;5093193;28;20201;-84
2021/12/06 12:38:41;;;;;;;35.70;24.90;;;;;;;;;;5074174;28;20213;-83
2021/12/06 12:41:12;;;;;;;40.97;30.17;;;;;;;;;;5084439;28;20220;-84
2021/12/06 12:43:45;;;;;;;39.33;23.93;;;;;;;;;;5076497;28;20376;-85
2021/12/06 12:46:19;;;;;;;47.07;30.67;;;;;;;;;;5079409;28;20201;-84
2021/12/06 12:48:52;;;;;;;45.43;33.63;;;;;;;;;;5081024;28;20259;-82
2021/12/06 12:51:24;;;;;;;46.67;34.90;;;;;;;;;;5087463;28;20209;-82
2021/12/06 12:54:02;;;;;;;41.80;26.00;;;;;;;;;;5080495;28;20281;-82
2021/12/06 12:56:35;;;;;;;43.07;29.30;;;;;;;;;;5082662;28;20205;-82
2021/12/06 12:59:17;;;;;;;44.23;30.70;;;;;;;;;;5079045;28;20208;-83
2021/12/06 13:01:46;;;;;;;46.47;34.33;;;;;;;;;;5080432;28;20272;-83
2021/12/06 13:04:15;;;;;;;37.93;25.97;;;;;;;;;;5088541;28;20252;-83
2021/12/06 13:06:51;;;;;;;26.70;17.43;;;;;;;;;;5082218;28;20222;-82
2021/12/06 13:09:28;;;;;;;34.97;27.43;;;;;;;;;;5085803;28;20203;-83
2021/12/06 13:12:04;;;;;;;44.83;32.13;;;;;;;;;;5078517;28;20197;-83
2021/12/06 13:14:38;;;;;;;44.90;36.20;;;;;;;;;;5083051;28;20204;-82
2021/12/06 13:17:12;;;;;;;30.93;22.30;;;;;;;;;;5088690;28;20202;-83
2021/12/06 13:19:45;;;;;;;31.57;16.23;;;;;;;;;;5079188;28;20204;-82
2021/12/06 13:22:30;;;;;;;46.63;29.13;;;;;;;;;;5078343;28;20225;-83
2021/12/06 13:25:00;;;;;;;51.90;39.07;;;;;;;;;;5078989;28;20219;-82
2021/12/06 13:27:41;;;;;;;49.13;32.33;;;;;;;;;;5082124;28;20228;-82
2021/12/06 13:30:31;;;;;;;53.73;34.97;;;;;;;;;;5080227;28;20219;-83
2021/12/06 13:33:01;;;;;;;48.67;31.73;;;;;;;;;;5072269;28;20216;-83
2021/12/06 13:35:34;;;;;;;51.70;35.30;;;;;;;;;;5086710;28;20213;-83
2021/12/06 13:38:15;;;;;;;51.50;36.50;;;;;;;;;;5080420;28;20211;-83
2021/12/06 13:40:48;;;;;;;56.73;38.60;;;;;;;;;;5081832;28;20216;-82
2021/12/06 13:43:22;;;;;;;43.80;23.90;;;;;;;;;;5081536;28;20279;-82
2021/12/06 13:45:59;;;;;;;46.53;28.00;;;;;;;;;;5083556;28;20200;-83
2021/12/06 13:48:37;;;;;;;57.67;32.67;;;;;;;;;;5081724;28;20227;-83
2021/12/06 13:51:33;;;;;;;39.00;23.80;;;;;;;;;;5085782;28;20350;-82
2021/12/06 13:54:05;;;;;;;45.70;33.17;;;;;;;;;;5071305;28;20209;-81
2021/12/06 13:56:48;;;;;;;40.97;24.73;;;;;;;;;;5090746;28;20200;-82
2021/12/06 13:59:22;;;;;;;43.20;30.43;;;;;;;;;;5084499;28;20279;-82
2021/12/06 14:01:52;;;;;;;41.87;25.90;;;;;;;;;;5086989;28;20208;-82
2021/12/06 14:04:25;;;;;;;41.37;22.40;;;;;;;;;;5080310;28;20227;-82
2021/12/06 14:07:02;;;;;;;46.50;29.87;;;;;;;;;;5080687;28;20258;-82
2021/12/06 14:09:47;;;;;;;35.90;27.87;;;;;;;;;;5085090;28;20264;-84
2021/12/06 14:12:20;;;;;;;39.43;24.77;;;;;;;;;;5082796;28;20205;-84
2021/12/06 14:15:03;;;;;;;40.30;27.70;;;;;;;;;;5084197;28;20216;-82
2021/12/06 14:17:32;;;;;;;35.43;24.40;;;;;;;;;;5077753;28;20235;-82
2021/12/06 14:20:06;;;;;;;39.47;25.63;;;;;;;;;;5076772;28;20205;-82
2021/12/06 14:22:39;;;;;;;40.53;27.43;;;;;;;;;;5088511;28;20288;-81
2021/12/06 14:25:20;;;;;;;33.80;23.90;;;;;;;;;;5095035;28;20207;-84
2021/12/06 14:27:51;;;;;;;35.07;21.17;;;;;;;;;;5080124;28;20223;-82
2021/12/06 14:30:26;;;;;;;36.00;24.60;;;;;;;;;;5085632;28;20207;-83
2021/12/06 14:32:59;;;;;;;34.77;21.07;;;;;;;;;;5081732;28;20201;-83
2021/12/06 14:35:34;;;;;;;32.37;22.90;;;;;;;;;;5084131;28;20208;-83
2021/12/06 14:38:09;;;;;;;27.90;17.83;;;;;;;;;;5081821;28;20194;-83
2021/12/06 14:40:46;;;;;;;34.30;24.03;;;;;;;;;;5079942;28;20209;-83
2021/12/06 14:43:28;;;;;;;29.33;20.93;;;;;;;;;;5092178;28;20241;-83
2021/12/06 14:46:04;;;;;;;30.33;21.47;;;;;;;;;;5092633;28;20207;-82
2021/12/06 14:48:34;;;;;;;28.07;22.80;;;;;;;;;;5096294;28;20283;-82
2021/12/06 14:51:09;;;;;;;30.20;25.03;;;;;;;;;;5092179;28;20216;-84
2021/12/06 14:53:59;;;;;;;28.20;20.47;;;;;;;;;;5078930;28;20217;-88
2021/12/06 14:56:51;;;;;;;27.00;19.80;;;;;;;;;;5076578;28;20209;-86
2021/12/06 14:59:43;;;;;;;29.67;26.57;;;;;;;;;;5075808;28;20214;-84
2021/12/06 15:02:51;;;;;;;;;;;;;;;;;;;;;
2021/12/06 15:05:43;;;;;;;27.10;18.63;;;;;;;;;;5087108;28;20290;-86
2021/12/06 15:08:55;;;;;;;;;;;;;;;;;;;;;